Time;durP1;ratioP1;P1;durP2;ratioP2;P2;SDS_P1;SDS_P2;PMS_P1;PMS_P2;Temp;Humidity;BMP_temperature;BMP_pressure;BME280_temperature;BME280_humidity;BME280_pressure;Samples;Min_cycle;Max_cycle;Signal;HPM_P1;HPM_P2
2022/08/08 00:01:32;;;;;;;20.02;13.18;;;;;;;12.08;87.27;102342.63;5093057;28;20024;-47
2022/08/08 00:04:05;;;;;;;17.90;13.40;;;;;;;11.91;87.72;102353.81;5092041;28;20452;-47
2022/08/08 00:06:36;;;;;;;18.48;13.65;;;;;;;11.79;87.95;102349.81;5092941;28;20451;-49
2022/08/08 00:09:09;;;;;;;17.38;13.80;;;;;;;11.80;88.21;102349.03;5092131;28;20032;-48
2022/08/08 00:11:45;;;;;;;18.02;13.13;;;;;;;11.60;88.58;102353.19;5092669;28;20028;-49
2022/08/08 00:14:27;;;;;;;14.55;12.50;;;;;;;11.46;88.82;102347.34;5095091;28;20380;-47
2022/08/08 00:17:04;;;;;;;20.48;13.68;;;;;;;11.43;90.15;102349.78;5096167;28;20081;-49
2022/08/08 00:19:59;;;;;;;20.25;15.13;;;;;;;11.49;92.00;102350.09;5096861;28;20099;-50
2022/08/08 00:22:31;;;;;;;21.45;17.25;;;;;;;11.67;92.75;102354.38;5097135;28;20028;-46
2022/08/08 00:25:05;;;;;;;21.23;16.40;;;;;;;11.68;92.39;102351.00;5096023;28;20422;-46
2022/08/08 00:27:33;;;;;;;17.38;14.55;;;;;;;11.61;90.83;102359.25;5096854;28;20467;-48
2022/08/08 00:30:05;;;;;;;22.23;15.20;;;;;;;11.68;91.54;102351.00;5096084;28;20032;-46
2022/08/08 00:32:44;;;;;;;21.83;15.95;;;;;;;11.59;91.93;102358.28;5096320;28;20368;-47
2022/08/08 00:35:31;;;;;;;18.02;14.88;;;;;;;11.52;92.18;102354.53;5096624;28;20016;-48
2022/08/08 00:38:30;;;;;;;21.10;17.23;;;;;;;11.58;92.38;102354.84;5096132;28;20032;-46
2022/08/08 00:41:15;;;;;;;25.80;17.33;;;;;;;11.65;91.66;102358.59;5096154;28;20063;-47
2022/08/08 00:44:06;;;;;;;17.90;14.55;;;;;;;11.61;90.68;102360.13;5096505;28;20070;-47
2022/08/08 00:47:02;;;;;;;21.65;16.50;;;;;;;11.59;91.86;102351.41;5096503;28;20516;-48
2022/08/08 00:50:04;;;;;;;22.23;16.48;;;;;;;11.55;92.22;102353.78;5096413;28;20042;-48
2022/08/08 00:52:41;;;;;;;18.17;14.88;;;;;;;11.56;92.31;102350.41;5095777;28;20027;-46
2022/08/08 00:55:32;;;;;;;22.92;17.88;;;;;;;11.59;92.29;102340.22;5096113;28;20112;-48
2022/08/08 00:58:40;;;;;;;19.23;16.20;;;;;;;11.58;92.53;102346.19;5096253;28;20043;-48
2022/08/08 01:01:12;;;;;;;20.50;17.30;;;;;;;11.58;93.00;102343.59;5092457;28;20082;-48
2022/08/08 01:03:56;;;;;;;21.77;17.27;;;;;;;11.61;92.78;102344.66;5096193;28;20050;-47
2022/08/08 01:06:58;;;;;;;25.52;17.73;;;;;;;11.57;93.09;102340.16;5095717;28;20024;-48
2022/08/08 01:09:50;;;;;;;25.13;18.30;;;;;;;11.51;93.29;102345.88;5096103;28;20115;-43
2022/08/08 01:12:40;;;;;;;26.98;18.60;;;;;;;11.51;94.18;102340.72;5095528;28;20113;-49
2022/08/08 01:15:43;;;;;;;25.52;19.08;;;;;;;11.55;94.11;102341.75;5095589;28;20028;-48
2022/08/08 01:18:31;;;;;;;27.30;18.75;;;;;;;11.56;94.50;102345.25;5095571;28;20030;-48
2022/08/08 01:21:34;;;;;;;26.10;19.13;;;;;;;11.53;93.32;102344.25;5095081;28;20040;-49
2022/08/08 01:24:32;;;;;;;24.00;19.17;;;;;;;11.47;94.29;102341.38;5095301;28;20043;-48
2022/08/08 01:27:29;;;;;;;28.25;17.70;;;;;;;11.44;93.65;102341.22;5095161;28;20062;-49
2022/08/08 01:30:12;;;;;;;24.33;18.42;;;;;;;11.43;94.08;102333.41;5095177;28;20460;-48
2022/08/08 01:33:11;;;;;;;20.75;17.30;;;;;;;11.39;93.55;102331.47;5095419;28;20065;-46
2022/08/08 01:36:08;;;;;;;23.40;17.83;;;;;;;11.28;93.77;102336.97;5094899;28;20028;-47
2022/08/08 01:38:52;;;;;;;27.70;18.92;;;;;;;11.18;93.87;102332.16;5095611;28;20078;-47
2022/08/08 01:41:29;;;;;;;23.42;19.85;;;;;;;11.10;95.37;102334.34;5094680;28;20032;-49
2022/08/08 01:44:33;;;;;;;25.63;19.15;;;;;;;11.09;96.37;102339.44;5094959;28;20028;-48
2022/08/08 01:47:19;;;;;;;25.02;19.70;;;;;;;11.08;96.71;102335.97;5095240;28;20111;-45
2022/08/08 01:49:57;;;;;;;30.20;20.70;;;;;;;11.03;96.75;102340.00;5095140;28;20463;-47
2022/08/08 01:52:42;;;;;;;26.23;17.65;;;;;;;10.89;96.29;102339.28;5095358;28;20050;-49
2022/08/08 01:55:19;;;;;;;24.92;20.10;;;;;;;10.85;97.90;102338.22;5094360;28;20058;-48
2022/08/08 01:58:02;;;;;;;33.30;21.52;;;;;;;10.93;99.00;102345.50;5094907;28;20031;-47
2022/08/08 02:00:39;;;;;;;31.13;22.85;;;;;;;10.92;99.41;102348.88;5095136;28;20028;-47
2022/08/08 02:03:32;;;;;;;27.90;21.85;;;;;;;10.94;99.37;102347.28;5094166;28;20126;-48
2022/08/08 02:06:19;;;;;;;29.15;22.35;;;;;;;10.94;99.76;102344.69;5094847;28;20070;-46
2022/08/08 02:08:54;;;;;;;30.20;20.45;;;;;;;10.91;99.50;102340.25;5094587;28;20044;-46
2022/08/08 02:11:30;;;;;;;30.17;23.27;;;;;;;10.95;100.00;102339.63;5094524;28;20379;-48
2022/08/08 02:14:11;;;;;;;28.65;22.95;;;;;;;10.97;100.00;102342.25;5094760;28;20070;-47
2022/08/08 02:16:52;;;;;;;31.77;23.15;;;;;;;10.96;100.00;102345.66;5094162;28;20020;-49
2022/08/08 02:19:26;;;;;;;30.52;23.02;;;;;;;10.92;100.00;102346.28;5094875;28;20028;-49
2022/08/08 02:24:59;;;;;;;29.63;22.90;;;;;;;10.97;100.00;102337.09;5094000;28;20085;-48
2022/08/08 02:27:46;;;;;;;33.40;23.15;;;;;;;11.06;100.00;102334.13;5094644;28;20073;-46
2022/08/08 02:30:37;;;;;;;31.02;23.23;;;;;;;11.08;100.00;102341.13;5093833;28;20019;-47
2022/08/08 02:33:37;;;;;;;26.33;20.23;;;;;;;11.15;99.63;102345.78;5093991;28;20020;-47
2022/08/08 02:36:22;;;;;;;26.05;19.85;;;;;;;10.98;98.44;102344.91;5094043;28;20039;-48
2022/08/08 02:38:54;;;;;;;26.08;20.15;;;;;;;11.08;99.18;102341.13;5093620;28;20031;-47
2022/08/08 02:41:41;;;;;;;30.70;22.83;;;;;;;11.19;100.00;102341.66;5094159;28;20106;-48
2022/08/08 02:44:15;;;;;;;27.48;19.15;;;;;;;11.00;98.25;102337.25;5093144;28;20384;-48
2022/08/08 02:47:04;;;;;;;25.63;19.55;;;;;;;11.00;98.18;102334.69;5094072;28;20114;-47
2022/08/08 02:49:55;;;;;;;23.23;18.70;;;;;;;10.93;97.02;102340.34;5094069;28;20055;-46
2022/08/08 02:52:38;;;;;;;25.83;20.80;;;;;;;10.82;98.21;102342.34;5093277;28;20448;-48
2022/08/08 02:55:24;;;;;;;30.02;21.65;;;;;;;10.71;99.29;102342.66;5093853;28;20111;-48
2022/08/08 02:58:27;;;;;;;25.02;19.38;;;;;;;10.61;98.26;102336.94;5093334;28;20024;-48
2022/08/08 03:01:25;;;;;;;22.90;18.63;;;;;;;10.39;97.78;102340.94;5093497;28;20544;-48
2022/08/08 03:04:35;;;;;;;23.85;18.70;;;;;;;10.40;97.62;102344.41;5093681;28;20376;-47
2022/08/08 03:07:22;;;;;;;24.40;19.52;;;;;;;10.23;97.61;102344.34;5092981;28;20024;-48
2022/08/08 03:10:19;;;;;;;25.40;20.30;;;;;;;10.17;97.97;102347.47;5093787;28;20051;-43
2022/08/08 03:13:02;;;;;;;23.92;18.67;;;;;;;10.09;98.18;102342.69;5092810;28;20032;-46
2022/08/08 03:15:34;;;;;;;25.33;19.95;;;;;;;10.04;98.45;102350.16;5093808;28;20032;-48
2022/08/08 03:18:17;;;;;;;26.23;20.20;;;;;;;10.02;99.15;102349.19;5093349;28;20032;-47
2022/08/08 03:20:49;;;;;;;23.17;20.50;;;;;;;10.02;98.72;102349.19;5092749;28;20073;-48
2022/08/08 03:23:16;;;;;;;30.30;23.80;;;;;;;10.13;100.00;102352.38;5093350;28;20032;-46
2022/08/08 03:25:46;;;;;;;30.63;24.42;;;;;;;9.97;100.00;102350.63;5093743;28;20353;-48
2022/08/08 03:28:20;;;;;;;25.58;19.90;;;;;;;9.76;98.70;102356.34;5093079;28;20107;-48
2022/08/08 03:30:46;;;;;;;27.55;22.05;;;;;;;9.69;98.82;102359.34;5093540;28;20059;-49
2022/08/08 03:33:17;;;;;;;25.75;21.70;;;;;;;9.64;99.56;102361.66;5092496;28;20056;-47
2022/08/08 03:35:47;;;;;;;27.65;22.75;;;;;;;9.64;100.00;102356.50;5093152;28;20020;-46
2022/08/08 03:38:13;;;;;;;28.30;23.05;;;;;;;9.60;99.99;102361.41;5093519;28;20016;-47
2022/08/08 03:40:38;;;;;;;33.17;22.45;;;;;;;9.52;99.57;102360.94;5092877;28;20070;-48
2022/08/08 03:43:07;;;;;;;31.13;24.35;;;;;;;9.65;100.00;102360.84;5092785;28;20045;-47
2022/08/08 03:45:33;;;;;;;35.55;28.00;;;;;;;9.72;100.00;102356.94;5093206;28;20065;-49
2022/08/08 03:48:07;;;;;;;33.25;25.95;;;;;;;9.66;100.00;102360.06;5091759;28;20028;-44
2022/08/08 03:50:48;;;;;;;27.80;22.52;;;;;;;9.58;100.00;102365.56;5093290;28;20023;-48
2022/08/08 03:53:17;;;;;;;30.75;24.63;;;;;;;9.54;100.00;102367.97;5093036;28;20043;-48
2022/08/08 03:55:48;;;;;;;33.63;26.13;;;;;;;9.55;100.00;102361.13;5092250;28;20472;-48
2022/08/08 03:58:22;;;;;;;31.08;23.38;;;;;;;9.37;100.00;102371.22;5092918;28;20024;-47
2022/08/08 04:00:52;;;;;;;28.02;22.33;;;;;;;9.39;100.00;102369.63;5092633;28;20028;-43
2022/08/08 04:03:18;;;;;;;33.58;26.10;;;;;;;9.58;100.00;102363.88;5092048;28;20502;-46
2022/08/08 04:05:43;;;;;;;30.58;24.30;;;;;;;9.47;100.00;102368.38;5092958;28;20032;-43
2022/08/08 04:08:16;;;;;;;33.10;26.83;;;;;;;9.57;100.00;102372.41;5092111;28;20089;-46
2022/08/08 04:10:46;;;;;;;35.83;26.70;;;;;;;9.52;100.00;102379.84;5092775;28;20028;-43
2022/08/08 04:13:11;;;;;;;37.28;28.60;;;;;;;9.64;100.00;102386.50;5092477;28;20024;-48
2022/08/08 04:15:36;;;;;;;35.58;28.67;;;;;;;9.71;100.00;102380.94;5092158;28;20077;-43
2022/08/08 04:18:02;;;;;;;39.90;31.30;;;;;;;9.85;100.00;102372.31;5092463;28;20145;-43
2022/08/08 04:20:28;;;;;;;30.50;25.92;;;;;;;9.82;100.00;102361.81;5092914;28;20468;-47
2022/08/08 04:22:54;;;;;;;30.45;25.02;;;;;;;9.67;100.00;102369.56;5092130;28;20016;-43
2022/08/08 04:25:19;;;;;;;35.15;26.88;;;;;;;9.78;100.00;102380.47;5092387;28;20086;-46
2022/08/08 04:27:45;;;;;;;44.33;33.20;;;;;;;9.97;100.00;102376.38;5092561;28;20028;-48
2022/08/08 04:30:11;;;;;;;33.30;26.65;;;;;;;9.95;100.00;102376.28;5091867;28;20472;-47
2022/08/08 04:32:37;;;;;;;37.00;29.30;;;;;;;10.02;100.00;102374.97;5092837;28;20055;-48
2022/08/08 04:35:03;;;;;;;33.28;27.25;;;;;;;9.98;100.00;102376.47;5092530;28;20066;-48
2022/08/08 04:37:28;;;;;;;35.17;27.92;;;;;;;9.96;100.00;102377.19;5091828;28;20028;-43
2022/08/08 04:39:55;;;;;;;38.00;27.98;;;;;;;9.96;100.00;102383.22;5092516;28;20444;-49
2022/08/08 04:42:21;;;;;;;31.17;24.83;;;;;;;9.96;100.00;102383.22;5092465;28;20416;-49
2022/08/08 04:44:46;;;;;;;32.53;25.55;;;;;;;9.81;100.00;102385.81;5091715;28;20483;-49
2022/08/08 04:47:11;;;;;;;30.27;25.05;;;;;;;9.72;100.00;102400.72;5092497;28;20107;-43
2022/08/08 04:49:37;;;;;;;29.00;24.35;;;;;;;9.69;100.00;102404.00;5092637;28;20391;-48
2022/08/08 04:52:02;;;;;;;34.25;27.63;;;;;;;9.79;100.00;102408.00;5091437;28;20384;-48
2022/08/08 04:54:27;;;;;;;33.95;27.15;;;;;;;9.78;100.00;102408.78;5092326;28;20032;-48
2022/08/08 04:56:53;;;;;;;35.85;27.80;;;;;;;9.85;100.00;102417.75;5092188;28;20028;-47
2022/08/08 04:59:19;;;;;;;33.83;29.02;;;;;;;9.89;100.00;102410.31;5092939;28;20024;-48
2022/08/08 05:01:44;;;;;;;38.40;28.88;;;;;;;9.96;100.00;102415.81;5096146;28;20032;-49
2022/08/08 05:04:09;;;;;;;41.53;31.27;;;;;;;10.01;100.00;102414.41;5096046;28;20044;-47
2022/08/08 05:06:35;;;;;;;37.30;29.10;;;;;;;9.91;100.00;102423.25;5095581;28;20039;-48
2022/08/08 05:09:01;;;;;;;44.67;33.08;;;;;;;10.07;100.00;102419.00;5095791;28;20028;-46
2022/08/08 05:11:26;;;;;;;45.58;34.15;;;;;;;10.15;100.00;102422.91;5095368;28;20379;-44
2022/08/08 05:13:52;;;;;;;48.13;37.05;;;;;;;10.23;100.00;102428.50;5095551;28;20089;-44
2022/08/08 05:16:18;;;;;;;48.95;34.88;;;;;;;10.29;100.00;102431.41;5095953;28;20034;-44
2022/08/08 05:18:43;;;;;;;48.03;38.50;;;;;;;10.45;100.00;102428.91;5095566;28;20483;-44
2022/08/08 05:21:08;;;;;;;51.88;41.05;;;;;;;10.61;100.00;102422.03;5095416;28;20024;-43
2022/08/08 05:23:34;;;;;;;58.58;41.47;;;;;;;10.74;100.00;102432.19;5095873;28;20101;-45
2022/08/08 05:26:00;;;;;;;55.28;42.10;;;;;;;10.84;100.00;102429.31;5094832;28;20020;-43
2022/08/08 05:28:25;;;;;;;51.92;40.55;;;;;;;10.97;100.00;102430.84;5095608;28;20035;-45
2022/08/08 05:30:51;;;;;;;53.33;40.67;;;;;;;11.10;100.00;102427.22;5095630;28;20032;-44
2022/08/08 05:33:16;;;;;;;52.55;39.13;;;;;;;11.26;100.00;102422.88;5094673;28;20028;-47
2022/08/08 05:35:42;;;;;;;55.35;40.13;;;;;;;11.36;100.00;102426.03;5095608;28;20105;-43
2022/08/08 05:38:13;;;;;;;50.08;38.42;;;;;;;11.51;100.00;102420.75;5095261;28;20491;-46
2022/08/08 05:40:46;;;;;;;54.33;39.60;;;;;;;11.64;100.00;102424.84;5094679;28;20028;-48
2022/08/08 05:43:25;;;;;;;51.17;38.13;;;;;;;11.80;100.00;102434.28;5095078;28;20475;-45
2022/08/08 05:45:56;;;;;;;48.72;37.00;;;;;;;11.90;100.00;102435.59;5094921;28;20051;-46
2022/08/08 05:48:22;;;;;;;47.88;36.05;;;;;;;12.04;100.00;102433.72;5094289;28;20376;-49
2022/08/08 05:50:49;;;;;;;50.53;35.35;;;;;;;12.17;100.00;102441.28;5095158;28;20047;-44
2022/08/08 05:53:15;;;;;;;46.53;34.30;;;;;;;12.31;100.00;102439.34;5094936;28;20077;-43
2022/08/08 05:55:43;;;;;;;49.45;34.65;;;;;;;12.45;100.00;102437.44;5094363;28;20028;-45
2022/08/08 05:58:11;;;;;;;44.85;33.60;;;;;;;12.59;100.00;102434.59;5094767;28;20456;-44
2022/08/08 06:00:37;;;;;;;43.38;31.98;;;;;;;12.75;100.00;102437.09;5094620;28;20028;-49
2022/08/08 06:03:11;;;;;;;39.90;29.80;;;;;;;12.87;100.00;102441.06;5094405;28;20036;-47
2022/08/08 06:05:44;;;;;;;37.05;27.63;;;;;;;12.99;100.00;102436.44;5094966;28;20078;-46
2022/08/08 06:08:13;;;;;;;39.13;28.40;;;;;;;13.13;100.00;102440.53;5094350;28;20065;-48
2022/08/08 06:10:39;;;;;;;33.72;24.38;;;;;;;13.23;100.00;102433.19;5094071;28;20080;-48
2022/08/08 06:13:06;;;;;;;35.30;26.50;;;;;;;13.37;100.00;102442.47;5094658;28;20208;-43
2022/08/08 06:15:34;;;;;;;32.92;23.92;;;;;;;13.46;100.00;102444.56;5094038;28;20024;-43
2022/08/08 06:18:00;;;;;;;32.42;22.55;;;;;;;13.57;100.00;102440.75;5094478;28;20468;-44
2022/08/08 06:21:00;;;;;;;29.88;23.50;;;;;;;13.70;100.00;102444.75;5094743;28;20038;-44
2022/08/08 06:23:26;;;;;;;38.88;21.85;;;;;;;13.87;100.00;102447.16;5094084;28;20028;-47
2022/08/08 06:26:04;;;;;;;30.35;21.42;;;;;;;13.97;100.00;102445.00;5094449;28;20028;-46
2022/08/08 06:28:31;;;;;;;;;;;;;;;14.00;100.00;102452.91;5094603;28;20087;-48
2022/08/08 06:31:00;;;;;;;31.17;19.23;;;;;;;14.25;100.00;102456.47;5093936;28;19912;-48
2022/08/08 06:33:39;;;;;;;24.98;18.50;;;;;;;14.37;100.00;102453.53;5094505;28;20358;-43
2022/08/08 06:36:07;;;;;;;29.17;17.95;;;;;;;14.46;98.71;102460.75;5093420;28;20020;-49
2022/08/08 06:38:36;;;;;;;22.02;16.77;;;;;;;14.59;97.57;102463.03;5094619;28;20154;-48
2022/08/08 06:41:07;;;;;;;21.15;16.80;;;;;;;14.71;97.03;102462.66;5093836;28;20034;-49
2022/08/08 06:43:35;;;;;;;22.83;16.67;;;;;;;14.93;97.75;102463.47;5093723;28;20032;-48
2022/08/08 06:46:03;;;;;;;30.67;19.15;;;;;;;15.05;95.24;102463.91;5093660;28;20064;-46
2022/08/08 06:48:29;;;;;;;27.98;19.40;;;;;;;15.16;93.62;102459.13;5094319;28;20028;-49
2022/08/08 06:50:56;;;;;;;30.73;19.77;;;;;;;15.26;92.67;102463.81;5093181;28;20031;-48
2022/08/08 06:53:21;;;;;;;33.47;21.30;;;;;;;15.42;91.95;102470.44;5093778;28;20384;-48
2022/08/08 06:55:47;;;;;;;28.55;20.15;;;;;;;15.58;91.57;102468.38;5094002;28;20467;-46
2022/08/08 06:58:12;;;;;;;26.15;18.48;;;;;;;15.65;88.08;102470.38;5093235;28;20024;-48
2022/08/08 07:00:42;;;;;;;28.90;19.00;;;;;;;15.74;88.00;102468.09;5094024;28;20043;-47
2022/08/08 07:03:17;;;;;;;28.65;17.60;;;;;;;15.88;88.93;102470.28;5093449;28;20059;-48
2022/08/08 07:05:49;;;;;;;23.08;17.50;;;;;;;16.02;87.86;102473.38;5093500;28;20024;-48
2022/08/08 07:08:17;;;;;;;24.05;16.02;;;;;;;16.20;87.40;102480.88;5093766;28;20028;-43
2022/08/08 07:10:48;;;;;;;22.35;14.43;;;;;;;16.33;85.24;102477.84;5093667;28;20081;-44
2022/08/08 07:13:18;;;;;;;23.55;14.30;;;;;;;16.46;85.88;102472.19;5093404;28;20028;-44
2022/08/08 07:16:02;;;;;;;17.15;13.93;;;;;;;16.58;84.81;102476.91;5093716;28;20024;-44
2022/08/08 07:18:55;;;;;;;18.70;11.80;;;;;;;16.74;83.48;102482.56;5092865;28;20027;-45
2022/08/08 07:21:23;;;;;;;16.48;10.00;;;;;;;16.90;81.85;102482.25;5093655;28;20024;-44
2022/08/08 07:23:56;;;;;;;14.50;10.27;;;;;;;17.04;81.75;102486.97;5092591;28;20028;-46
2022/08/08 07:26:24;;;;;;;13.18;8.52;;;;;;;17.11;80.23;102489.78;5092628;28;20039;-45
2022/08/08 07:28:52;;;;;;;12.23;8.38;;;;;;;17.26;81.04;102493.66;5093325;28;20028;-46
2022/08/08 07:31:19;;;;;;;13.05;7.50;;;;;;;17.38;79.48;102487.94;5093284;28;20024;-44
2022/08/08 07:33:47;;;;;;;13.63;7.03;;;;;;;17.46;78.35;102488.16;5092972;28;20092;-45
2022/08/08 07:36:12;;;;;;;11.90;6.20;;;;;;;17.49;76.03;102489.09;5093376;28;20118;-47
2022/08/08 07:38:39;;;;;;;13.65;6.53;;;;;;;17.59;77.19;102492.84;5093026;28;20093;-43
2022/08/08 07:41:07;;;;;;;9.13;5.95;;;;;;;17.65;76.16;102490.41;5092514;28;20464;-44
2022/08/08 07:43:33;;;;;;;13.13;6.13;;;;;;;17.82;77.26;102484.72;5093273;28;20027;-43
2022/08/08 07:45:58;;;;;;;13.25;6.13;;;;;;;17.90;75.71;102493.66;5092659;28;20059;-44
2022/08/08 07:48:24;;;;;;;10.05;5.13;;;;;;;17.97;75.33;102492.97;5092910;28;20032;-44
2022/08/08 07:50:51;;;;;;;13.32;5.65;;;;;;;17.94;72.74;102492.91;5092898;28;20032;-46
2022/08/08 07:53:31;;;;;;;9.80;5.13;;;;;;;17.97;74.45;102498.19;5092119;28;20028;-44
2022/08/08 07:56:00;;;;;;;10.13;5.25;;;;;;;17.99;73.14;102499.13;5092859;28;20345;-47
2022/08/08 07:58:39;;;;;;;13.55;5.25;;;;;;;18.12;74.15;102496.84;5093233;28;20016;-48
2022/08/08 08:01:06;;;;;;;10.23;4.60;;;;;;;18.25;73.49;102491.94;5092252;28;20020;-47
2022/08/08 08:04:02;;;;;;;11.60;4.50;;;;;;;18.39;72.59;102489.66;5092999;28;20409;-48
2022/08/08 08:06:32;;;;;;;9.75;3.88;;;;;;;18.53;72.36;102503.03;5081864;28;20479;-44
2022/08/08 08:09:22;;;;;;;12.45;4.47;;;;;;;18.69;72.92;102506.00;5092441;28;20030;-48
2022/08/08 08:11:49;;;;;;;10.80;3.95;;;;;;;18.79;71.22;102505.34;5092787;28;20089;-44
2022/08/08 08:14:28;;;;;;;7.32;3.85;;;;;;;18.80;69.80;102501.00;5091951;28;20089;-44
2022/08/08 08:16:54;;;;;;;9.80;3.80;;;;;;;18.81;69.27;102502.75;5092682;28;20055;-44
2022/08/08 08:19:25;;;;;;;8.05;3.63;;;;;;;18.90;70.21;102497.75;5093023;28;20028;-43
2022/08/08 08:21:50;;;;;;;9.23;3.67;;;;;;;18.98;70.19;102497.94;5091909;28;20020;-48
2022/08/08 08:24:16;;;;;;;8.82;3.97;;;;;;;19.06;69.00;102505.09;5092822;28;20032;-49
2022/08/08 08:26:41;;;;;;;11.75;4.00;;;;;;;19.19;68.86;102508.84;5092849;28;20472;-47
2022/08/08 08:29:07;;;;;;;7.88;2.90;;;;;;;19.29;66.77;102507.31;5091603;28;20116;-47
2022/08/08 08:31:33;;;;;;;8.57;3.55;;;;;;;19.32;66.39;102512.56;5092735;28;20099;-44
2022/08/08 08:33:58;;;;;;;10.18;3.80;;;;;;;19.50;66.95;102514.66;5093214;28;20050;-44
2022/08/08 08:36:24;;;;;;;6.28;2.70;;;;;;;19.55;63.80;102514.78;5096011;28;20039;-44
2022/08/08 08:38:50;;;;;;;6.88;3.20;;;;;;;19.60;64.02;102517.44;5096601;28;20081;-49
2022/08/08 08:41:17;;;;;;;7.30;3.33;;;;;;;19.77;66.20;102517.75;5096547;28;20024;-47
2022/08/08 08:43:43;;;;;;;9.10;3.53;;;;;;;19.73;63.64;102515.09;5095598;28;20032;-48
2022/08/08 08:46:12;;;;;;;7.53;2.42;;;;;;;19.92;61.98;102520.69;5096202;28;20352;-49
2022/08/08 08:48:40;;;;;;;9.05;2.67;;;;;;;19.98;61.11;102528.66;5096397;28;20035;-48
2022/08/08 08:51:10;;;;;;;7.10;3.00;;;;;;;20.22;63.55;102532.56;5095739;28;20016;-49
2022/08/08 08:53:42;;;;;;;7.15;2.70;;;;;;;20.22;60.55;102516.84;5096453;28;20031;-49
2022/08/08 08:56:09;;;;;;;9.40;2.85;;;;;;;20.45;62.77;102529.41;5095935;28;20067;-49
2022/08/08 08:58:41;;;;;;;10.35;2.95;;;;;;;20.76;60.36;102522.03;5095597;28;20073;-48
2022/08/08 09:01:09;;;;;;;8.93;2.63;;;;;;;20.97;60.62;102522.31;5096182;28;20056;-47
2022/08/08 09:03:35;;;;;;;6.13;2.72;;;;;;;21.00;60.37;102521.47;5095315;28;20483;-45
2022/08/08 09:06:01;;;;;;;6.03;2.60;;;;;;;20.85;58.20;102519.53;5096379;28;20052;-46
2022/08/08 09:08:27;;;;;;;6.47;2.30;;;;;;;20.80;58.19;102534.31;5096005;28;20401;-46
2022/08/08 09:10:54;;;;;;;7.78;2.58;;;;;;;20.92;57.71;102525.75;5095168;28;20536;-48
2022/08/08 09:13:20;;;;;;;7.90;2.90;;;;;;;21.04;58.04;102524.19;5095798;28;20039;-48
2022/08/08 09:15:45;;;;;;;7.45;2.60;;;;;;;21.58;58.22;102515.19;5096240;28;20035;-49
2022/08/08 09:18:10;;;;;;;6.97;2.40;;;;;;;21.65;56.53;102525.78;5095017;28;20020;-45
2022/08/08 09:20:36;;;;;;;8.25;2.67;;;;;;;21.69;55.88;102529.28;5095880;28;20024;-44
2022/08/08 09:23:03;;;;;;;5.38;2.25;;;;;;;21.74;55.85;102526.72;5095649;28;20027;-49
2022/08/08 09:25:28;;;;;;;8.93;2.53;;;;;;;21.49;56.52;102522.06;5095007;28;20051;-49
2022/08/08 09:27:56;;;;;;;5.55;2.40;;;;;;;21.14;57.30;102526.91;5095557;28;20458;-47
2022/08/08 09:30:24;;;;;;;7.00;2.05;;;;;;;20.95;56.40;102526.66;5095710;28;20024;-44
2022/08/08 09:32:52;;;;;;;5.40;2.20;;;;;;;21.07;57.88;102532.91;5094676;28;20492;-45
2022/08/08 09:35:21;;;;;;;4.65;2.30;;;;;;;20.96;56.80;102525.78;5095499;28;20499;-46
2022/08/08 09:37:52;;;;;;;9.38;2.45;;;;;;;20.99;56.16;102528.47;5095317;28;20043;-50
2022/08/08 09:40:20;;;;;;;4.97;2.25;;;;;;;20.84;57.63;102529.13;5094904;28;20073;-50
2022/08/08 09:42:48;;;;;;;8.68;2.50;;;;;;;21.48;56.88;102527.28;5095638;28;20017;-44
2022/08/08 09:45:31;;;;;;;6.50;2.40;;;;;;;21.98;55.21;102524.31;5094537;28;20056;-47
2022/08/08 09:48:02;;;;;;;9.10;2.65;;;;;;;22.17;54.99;102525.34;5094459;28;20410;-50
2022/08/08 09:50:32;;;;;;;6.03;2.20;;;;;;;22.62;54.61;102520.44;5095339;28;20032;-45
2022/08/08 09:53:00;;;;;;;7.13;2.50;;;;;;;23.18;52.91;102520.75;5094190;28;20028;-44
2022/08/08 09:55:27;;;;;;;5.72;1.63;;;;;;;24.29;49.56;102520.91;5095382;28;20027;-45
2022/08/08 09:58:05;;;;;;;6.27;2.00;;;;;;;24.93;49.66;102528.69;5094931;28;20468;-50
2022/08/08 10:00:32;;;;;;;4.43;1.73;;;;;;;24.88;45.15;102520.81;5094382;28;20028;-49
2022/08/08 10:03:01;;;;;;;7.85;1.77;;;;;;;24.99;47.34;102526.88;5094860;28;20081;-47
2022/08/08 10:05:32;;;;;;;5.57;1.70;;;;;;;25.05;46.22;102517.19;5095049;28;20023;-45
2022/08/08 10:07:57;;;;;;;9.18;2.42;;;;;;;25.67;45.54;102523.06;5094168;28;20089;-49
2022/08/08 10:10:35;;;;;;;5.10;2.22;;;;;;;26.35;44.09;102517.22;5095165;28;20020;-50
2022/08/08 10:13:01;;;;;;;;;;;;;;;26.66;46.04;102523.94;5094788;28;20383;-45
2022/08/08 10:15:37;;;;;;;8.30;1.50;;;;;;;26.03;41.13;102522.75;5094293;28;19919;-49
2022/08/08 10:18:02;;;;;;;4.07;1.30;;;;;;;25.15;42.73;102521.53;5094781;28;20031;-50
2022/08/08 10:20:38;;;;;;;5.90;1.50;;;;;;;24.42;45.91;102532.28;5094693;28;20020;-49
2022/08/08 10:23:04;;;;;;;7.57;1.60;;;;;;;23.73;47.49;102529.63;5093890;28;20581;-49
2022/08/08 10:25:30;;;;;;;2.95;1.20;;;;;;;23.22;46.00;102530.41;5094705;28;20036;-44
2022/08/08 10:27:55;;;;;;;3.60;1.25;;;;;;;23.08;46.43;102518.91;5093635;28;20024;-44
2022/08/08 10:30:24;;;;;;;3.83;1.00;;;;;;;22.88;47.24;102527.59;5094384;28;20074;-50
2022/08/08 10:32:57;;;;;;;4.07;1.15;;;;;;;22.78;47.98;102523.16;5094494;28;20102;-48
2022/08/08 10:35:25;;;;;;;4.30;1.13;;;;;;;22.68;47.66;102531.00;5093777;28;20028;-45
2022/08/08 10:38:00;;;;;;;4.63;1.20;;;;;;;22.67;47.94;102523.97;5094364;28;20028;-45
2022/08/08 10:40:27;;;;;;;2.33;1.00;;;;;;;24.55;45.89;102522.59;5094414;28;20039;-43
2022/08/08 10:42:55;;;;;;;3.17;1.00;;;;;;;26.65;41.59;102499.28;5093234;28;20114;-49
2022/08/08 10:45:21;;;;;;;4.00;1.30;;;;;;;27.97;37.79;102516.00;5094074;28;20133;-48
2022/08/08 10:47:58;;;;;;;4.68;1.30;;;;;;;28.11;38.05;102521.97;5094079;28;20032;-50
2022/08/08 10:50:35;;;;;;;3.72;1.23;;;;;;;27.34;39.47;102520.47;5093628;28;20555;-50
2022/08/08 10:53:07;;;;;;;;;;;;;;;27.34;43.19;102515.19;5094196;28;20153;-51
2022/08/08 10:55:36;;;;;;;5.53;1.58;;;;;;;25.66;40.86;102515.16;5093851;28;20386;-49
2022/08/08 10:58:04;;;;;;;3.88;1.08;;;;;;;24.90;42.03;102513.75;5093209;28;20028;-50
2022/08/08 11:00:31;;;;;;;3.65;1.25;;;;;;;24.44;44.07;102524.38;5094117;28;20035;-45
2022/08/08 11:03:14;;;;;;;4.77;1.20;;;;;;;24.39;44.68;102523.50;5093182;28;20050;-49
2022/08/08 11:05:47;;;;;;;3.80;0.85;;;;;;;24.59;44.58;102519.09;5093794;28;20266;-48
2022/08/08 11:08:27;;;;;;;2.53;1.10;;;;;;;24.75;43.36;102513.78;5093942;28;20028;-47
2022/08/08 11:11:09;;;;;;;3.33;0.98;;;;;;;25.45;42.72;102511.75;5092677;28;20388;-47
2022/08/08 11:13:44;;;;;;;2.35;0.75;;;;;;;27.03;39.13;102505.00;5093594;28;20383;-50
2022/08/08 11:16:23;;;;;;;5.65;1.17;;;;;;;28.58;37.74;102506.91;5093249;28;20024;-46
2022/08/08 11:18:52;;;;;;;5.85;0.70;;;;;;;29.84;34.30;102505.03;5093134;28;20023;-49
2022/08/08 11:21:17;;;;;;;2.08;0.80;;;;;;;30.41;31.76;102500.03;5093665;28;20024;-49
2022/08/08 11:23:45;;;;;;;4.20;1.10;;;;;;;30.62;31.31;102498.56;5093329;28;20101;-50
2022/08/08 11:26:16;;;;;;;2.97;0.82;;;;;;;30.90;31.52;102496.88;5092703;28;20490;-50
2022/08/08 11:28:43;;;;;;;5.53;0.90;;;;;;;31.24;29.72;102495.88;5093447;28;20023;-46
2022/08/08 11:31:13;;;;;;;2.63;0.80;;;;;;;30.52;30.64;102497.97;5092589;28;20024;-49
2022/08/08 11:33:39;;;;;;;4.47;0.85;;;;;;;29.45;31.51;102493.63;5093516;28;20020;-47
2022/08/08 11:36:05;;;;;;;3.67;0.88;;;;;;;28.09;34.08;102497.25;5093201;28;20028;-47
2022/08/08 11:38:31;;;;;;;2.42;0.80;;;;;;;26.90;33.78;102491.94;5092711;28;20069;-51
2022/08/08 11:40:56;;;;;;;2.65;0.80;;;;;;;26.17;35.78;102491.84;5093155;28;20024;-48
2022/08/08 11:43:27;;;;;;;4.05;1.08;;;;;;;25.87;38.15;102493.81;5093407;28;20035;-49
2022/08/08 11:45:52;;;;;;;2.55;0.70;;;;;;;26.70;37.12;102481.59;5092400;28;20174;-50